No Regrets — WDG2679 — position and weather

sailwx.info

Track history (hours):
 
Tides and Currents Weather Stations Pressure Air Temp Water Temp Dewpoint Dewpoint Depression Visibility Wind Speed Wind Dir Waves Ship Positions

No Regrets

Owner: Bayne, Bruce, Scappoose, OR. More information available from US FCC via Universal Licensing System and Coast Guard Vessel Documentation Center.

Last reported at 2018-Jun-24 22:16 UTC. Time now 2018-Jul-21 13:47 UTC.
Position N 45°44' W 122°51'.
Warning: this ship's position is 26 days out of date.

Length 12 m.

Type: Sailing vessel. MMSI: 367518120.

Date/timePositionNaut miles runAvg speedWind from/ knotsBaromVisibWave heightAir tempDewpointWater temp
2018-Jun-24 22:16N 45°44' W 122°51'0 0.4
2018-Jun-24 21:59N 45°44' W 122°51'3 5.2
2018-Jun-24 21:30N 45°46' W 122°49'2 4.8
2018-Jun-24 21:00N 45°48' W 122°49'3 5.2
2018-Jun-24 20:31N 45°51' W 122°48'1 2.2
2018-Jun-24 19:59N 45°52' W 122°48'1 2.1
2018-Jun-24 19:31N 45°53' W 122°48'2 4.3
2018-Jun-24 18:58N 45°55' W 122°48'2 4.2
2018-Jun-24 18:30N 45°57' W 122°49'2 4.3
2018-Jun-24 18:00N 45°59' W 122°50'2 4.2
2018-Jun-24 17:30N 46°01' W 122°51'2 3.2
2018-Jun-24 16:59N 46°02' W 122°53'0 0.0
2018-Jun-24 00:04N 46°02' W 122°53'0 0.1
2018-Jun-23 23:58N 46°02' W 122°53'0 0.0
2018-Jun-23 23:28N 46°02' W 122°53'0 0.0
2018-Jun-23 22:48N 46°02' W 122°53'0 0.0
2018-Jun-23 22:27N 46°02' W 122°53'0 0.0
2018-Jun-23 22:00N 46°02' W 122°53'2 4.0
2018-Jun-23 21:30N 46°04' W 122°53'2 4.4
2018-Jun-23 20:59N 46°06' W 122°56'2 4.8
2018-Jun-23 20:30N 46°07' W 122°59'2 4.9
2018-Jun-23 20:00N 46°08' W 123°01'2 4.8
2018-Jun-23 19:30N 46°10' W 123°04'2 4.8
2018-Jun-23 19:01N 46°11' W 123°07'1 2.7
2018-Jun-23 18:30N 46°11' W 123°09'3 5.0
2018-Jun-23 18:00N 46°10' W 123°12'1 0.1
2018-Jun-23 03:16N 46°10' W 123°13'1 2.4
2018-Jun-23 02:47N 46°09' W 123°15'1 4.4
2018-Jun-23 02:30N 46°09' W 123°16'2 4.7
2018-Jun-23 02:01N 46°09' W 123°20'2 2.9
2018-Jun-23 01:29N 46°09' W 123°22'2 3.5
2018-Jun-23 01:00N 46°10' W 123°24'1 2.5
2018-Jun-23 00:29N 46°11' W 123°25'2 3.2
2018-Jun-23 00:00N 46°12' W 123°26'2 3.6
2018-Jun-22 23:30N 46°14' W 123°26'2 4.5
2018-Jun-22 23:00N 46°16' W 123°28'2 4.0
2018-Jun-22 22:30N 46°16' W 123°30'2 4.0
2018-Jun-22 22:00N 46°15' W 123°33'2 3.3
2018-Jun-22 21:31N 46°15' W 123°35'1 2.8
2018-Jun-22 21:01N 46°15' W 123°38'1 2.9
2018-Jun-22 20:30N 46°15' W 123°40'2 3.4
2018-Jun-22 20:00N 46°15' W 123°42'2 3.3
2018-Jun-22 19:31N 46°14' W 123°44'1 2.4
2018-Jun-22 18:59N 46°13' W 123°45'2 3.3
2018-Jun-22 18:29N 46°12' W 123°44'0 0.0
2018-Jun-22 03:54N 46°12' W 123°44'1 1.5
2018-Jun-22 03:30N 46°12' W 123°45'2 4.6
2018-Jun-22 03:00N 46°12' W 123°48'4 7.3
2018-Jun-22 02:27N 46°12' W 123°53'3 6.9
2018-Jun-22 02:00N 46°13' W 123°57'4 7.7
2018-Jun-22 01:30N 46°16' W 124°02'3 6.1
2018-Jun-22 01:00N 46°15' W 124°06'2 4.0
2018-Jun-22 00:30N 46°15' W 124°09'3 5.5
2018-Jun-22 00:00N 46°18' W 124°09'2 5.1
2018-Jun-21 23:30N 46°20' W 124°10'2 5.0
2018-Jun-21 23:00N 46°23' W 124°11'3 5.8
2018-Jun-21 22:30N 46°26' W 124°11'3 5.6
2018-Jun-21 21:59N 46°29' W 124°12'3 5.8
2018-Jun-21 21:28N 46°32' W 124°12'3 5.7
2018-Jun-21 21:00N 46°34' W 124°13'3 5.1
2018-Jun-21 20:30N 46°37' W 124°12'3 5.3
2018-Jun-21 20:00N 46°39' W 124°12'2 3.4
2018-Jun-21 19:30N 46°41' W 124°12'2 4.2
2018-Jun-21 19:00N 46°43' W 124°13'2 4.6
2018-Jun-21 18:28N 46°46' W 124°13'2 4.8
2018-Jun-21 18:00N 46°48' W 124°13'2 3.4
2018-Jun-21 17:30N 46°49' W 124°14'2 3.4
2018-Jun-21 16:59N 46°51' W 124°14'2 3.9
2018-Jun-21 16:30N 46°53' W 124°13'2 0.1
2018-Jun-20 12:24N 46°54' W 124°12'2 3.8
2018-Jun-20 11:56N 46°54' W 124°14'1 2.6
2018-Jun-20 11:28N 46°53' W 124°16'1 0.9
2018-Jun-20 10:33N 46°53' W 124°16'0 2.3
2018-Jun-20 10:30N 46°52' W 124°16'1 1.8
2018-Jun-20 09:58N 46°52' W 124°15'1 1.4
2018-Jun-20 09:29N 46°52' W 124°14'2 3.5
2018-Jun-20 09:00N 46°51' W 124°16'3 5.4
2018-Jun-20 08:30N 46°48' W 124°16'3 5.5
2018-Jun-20 08:00N 46°46' W 124°16'3 5.5
2018-Jun-20 07:30N 46°43' W 124°15'3 5.4
2018-Jun-20 06:59N 46°40' W 124°15'7 5.2
2018-Jun-20 05:36N 46°33' W 124°15'0 4.8
2018-Jun-20 05:30N 46°32' W 124°15'2 4.9
2018-Jun-20 05:00N 46°30' W 124°15'2 4.9
2018-Jun-20 04:30N 46°27' W 124°15'3 5.0
2018-Jun-20 04:01N 46°25' W 124°14'3 4.9
2018-Jun-20 03:20N 46°22' W 124°14'2 5.0
2018-Jun-20 03:00N 46°20' W 124°14'2 4.6
2018-Jun-20 02:31N 46°18' W 124°13'3 5.0
2018-Jun-20 02:01N 46°16' W 124°10'2 4.6
2018-Jun-20 01:31N 46°14' W 124°08'3 5.2
2018-Jun-20 01:01N 46°15' W 124°04'2 3.7
2018-Jun-20 00:28N 46°16' W 124°02'2 4.1
2018-Jun-20 00:01N 46°18' W 124°02'0 0.0
2018-Jun-19 00:38N 46°18' W 124°02'0 0.0
2018-Jun-19 00:29N 46°18' W 124°02'0 0.0
2018-Jun-18 23:59N 46°18' W 124°02'0 0.0
2018-Jun-18 23:30N 46°18' W 124°02'2 4.7
2018-Jun-18 23:00N 46°16' W 124°02'2 4.1
2018-Jun-18 22:30N 46°15' W 123°59'2 4.1
2018-Jun-18 22:00N 46°13' W 123°57'2 4.8
2018-Jun-18 21:30N 46°12' W 123°55'2 0.1
2018-Jun-17 22:26N 46°11' W 123°51'0 0.0
2018-Jun-17 21:59N 46°11' W 123°51'2 3.4
2018-Jun-17 21:18N 46°11' W 123°55'1 2.2
2018-Jun-17 20:57N 46°10' W 123°55'0 0.1
2018-Jun-17 20:22N 46°10' W 123°55'0 0.0
2018-Jun-17 18:14N 46°10' W 123°55'0 0.0
2018-Jun-17 00:22N 46°10' W 123°55'0 0.0
2018-Jun-16 23:58N 46°10' W 123°55'0 0.0
2018-Jun-16 23:28N 46°10' W 123°55'0 0.2
2018-Jun-16 23:00N 46°10' W 123°55'2 3.6
2018-Jun-16 22:30N 46°11' W 123°53'2 3.1
2018-Jun-16 21:59N 46°12' W 123°51'2 3.6
2018-Jun-16 21:30N 46°12' W 123°49'2 3.8
2018-Jun-16 21:00N 46°13' W 123°46'2 3.7
2018-Jun-16 20:30N 46°11' W 123°44'0 0.6
2018-Jun-16 19:59N 46°11' W 123°44'0 0.0
2018-Jun-16 19:20N 46°11' W 123°44'0 0.0
2018-Jun-16 18:59N 46°11' W 123°44'0 0.0
2018-Jun-16 18:29N 46°11' W 123°44'0 0.0
2018-Jun-16 17:59N 46°11' W 123°44'0 0.0
2018-Jun-16 00:50N 46°11' W 123°44'0 0.0
2018-Jun-16 00:29N 46°11' W 123°44'1 1.3
2018-Jun-16 00:00N 46°11' W 123°44'2 4.3
2018-Jun-15 23:30N 46°12' W 123°45'2 4.2
2018-Jun-15 23:00N 46°14' W 123°44'2 4.8
2018-Jun-15 22:30N 46°15' W 123°41'2 4.6
2018-Jun-15 22:00N 46°16' W 123°37'2 4.7
2018-Jun-15 21:30N 46°15' W 123°34'3 5.2
2018-Jun-15 21:00N 46°16' W 123°30'3 5.3
2018-Jun-15 20:30N 46°15' W 123°27'2 4.1
2018-Jun-15 20:00N 46°13' W 123°25'0 0.0
2018-Jun-15 01:18N 46°13' W 123°26'0 0.0
2018-Jun-15 01:00N 46°13' W 123°26'2 3.4
2018-Jun-15 00:30N 46°12' W 123°24'0 0.9
2018-Jun-15 00:00N 46°12' W 123°23'0 0.3
2018-Jun-14 23:28N 46°12' W 123°23'0 0.2
2018-Jun-14 23:00N 46°12' W 123°23'2 4.1
2018-Jun-14 22:30N 46°13' W 123°26'  
Track history (hours):
 
Tides and Currents Weather Stations Pressure Air Temp Water Temp Dewpoint Dewpoint Depression Visibility Wind Speed Wind Dir Waves Ship Positions

No Regrets

Owner: Bayne, Bruce, Scappoose, OR. More information available from US FCC via Universal Licensing System and Coast Guard Vessel Documentation Center.

Last reported at 2018-Jun-24 22:16 UTC. Time now 2018-Jul-21 13:47 UTC.
Position N 45°44' W 122°51'.
Warning: this ship's position is 26 days out of date.

Length 12 m.

Type: Sailing vessel. MMSI: 367518120.

Date/timePositionNaut miles runAvg speedWind from/ knotsBaromVisibWave heightAir tempDewpointWater temp
2018-Jun-24 22:16N 45°44' W 122°51'0 0.4
2018-Jun-24 21:59N 45°44' W 122°51'3 5.2
2018-Jun-24 21:30N 45°46' W 122°49'2 4.8
2018-Jun-24 21:00N 45°48' W 122°49'3 5.2
2018-Jun-24 20:31N 45°51' W 122°48'1 2.2
2018-Jun-24 19:59N 45°52' W 122°48'1 2.1
2018-Jun-24 19:31N 45°53' W 122°48'2 4.3
2018-Jun-24 18:58N 45°55' W 122°48'2 4.2
2018-Jun-24 18:30N 45°57' W 122°49'2 4.3
2018-Jun-24 18:00N 45°59' W 122°50'2 4.2
2018-Jun-24 17:30N 46°01' W 122°51'2 3.2
2018-Jun-24 16:59N 46°02' W 122°53'0 0.0
2018-Jun-24 00:04N 46°02' W 122°53'0 0.1
2018-Jun-23 23:58N 46°02' W 122°53'0 0.0
2018-Jun-23 23:28N 46°02' W 122°53'0 0.0
2018-Jun-23 22:48N 46°02' W 122°53'0 0.0
2018-Jun-23 22:27N 46°02' W 122°53'0 0.0
2018-Jun-23 22:00N 46°02' W 122°53'2 4.0
2018-Jun-23 21:30N 46°04' W 122°53'2 4.4
2018-Jun-23 20:59N 46°06' W 122°56'2 4.8
2018-Jun-23 20:30N 46°07' W 122°59'2 4.9
2018-Jun-23 20:00N 46°08' W 123°01'2 4.8
2018-Jun-23 19:30N 46°10' W 123°04'2 4.8
2018-Jun-23 19:01N 46°11' W 123°07'1 2.7
2018-Jun-23 18:30N 46°11' W 123°09'3 5.0
2018-Jun-23 18:00N 46°10' W 123°12'1 0.1
2018-Jun-23 03:16N 46°10' W 123°13'1 2.4
2018-Jun-23 02:47N 46°09' W 123°15'1 4.4
2018-Jun-23 02:30N 46°09' W 123°16'2 4.7
2018-Jun-23 02:01N 46°09' W 123°20'2 2.9
2018-Jun-23 01:29N 46°09' W 123°22'2 3.5
2018-Jun-23 01:00N 46°10' W 123°24'1 2.5
2018-Jun-23 00:29N 46°11' W 123°25'2 3.2
2018-Jun-23 00:00N 46°12' W 123°26'2 3.6
2018-Jun-22 23:30N 46°14' W 123°26'2 4.5
2018-Jun-22 23:00N 46°16' W 123°28'2 4.0
2018-Jun-22 22:30N 46°16' W 123°30'2 4.0
2018-Jun-22 22:00N 46°15' W 123°33'2 3.3
2018-Jun-22 21:31N 46°15' W 123°35'1 2.8
2018-Jun-22 21:01N 46°15' W 123°38'1 2.9
2018-Jun-22 20:30N 46°15' W 123°40'2 3.4
2018-Jun-22 20:00N 46°15' W 123°42'2 3.3
2018-Jun-22 19:31N 46°14' W 123°44'1 2.4
2018-Jun-22 18:59N 46°13' W 123°45'2 3.3
2018-Jun-22 18:29N 46°12' W 123°44'0 0.0
2018-Jun-22 03:54N 46°12' W 123°44'1 1.5
2018-Jun-22 03:30N 46°12' W 123°45'2 4.6
2018-Jun-22 03:00N 46°12' W 123°48'4 7.3
2018-Jun-22 02:27N 46°12' W 123°53'3 6.9
2018-Jun-22 02:00N 46°13' W 123°57'4 7.7
2018-Jun-22 01:30N 46°16' W 124°02'3 6.1
2018-Jun-22 01:00N 46°15' W 124°06'2 4.0
2018-Jun-22 00:30N 46°15' W 124°09'3 5.5
2018-Jun-22 00:00N 46°18' W 124°09'2 5.1
2018-Jun-21 23:30N 46°20' W 124°10'2 5.0
2018-Jun-21 23:00N 46°23' W 124°11'3 5.8
2018-Jun-21 22:30N 46°26' W 124°11'3 5.6
2018-Jun-21 21:59N 46°29' W 124°12'3 5.8
2018-Jun-21 21:28N 46°32' W 124°12'3 5.7
2018-Jun-21 21:00N 46°34' W 124°13'3 5.1
2018-Jun-21 20:30N 46°37' W 124°12'3 5.3
2018-Jun-21 20:00N 46°39' W 124°12'2 3.4
2018-Jun-21 19:30N 46°41' W 124°12'2 4.2
2018-Jun-21 19:00N 46°43' W 124°13'2 4.6
2018-Jun-21 18:28N 46°46' W 124°13'2 4.8
2018-Jun-21 18:00N 46°48' W 124°13'2 3.4
2018-Jun-21 17:30N 46°49' W 124°14'2 3.4
2018-Jun-21 16:59N 46°51' W 124°14'2 3.9
2018-Jun-21 16:30N 46°53' W 124°13'2 0.1
2018-Jun-20 12:24N 46°54' W 124°12'2 3.8
2018-Jun-20 11:56N 46°54' W 124°14'1 2.6
2018-Jun-20 11:28N 46°53' W 124°16'1 0.9
2018-Jun-20 10:33N 46°53' W 124°16'0 2.3
2018-Jun-20 10:30N 46°52' W 124°16'1 1.8
2018-Jun-20 09:58N 46°52' W 124°15'1 1.4
2018-Jun-20 09:29N 46°52' W 124°14'2 3.5
2018-Jun-20 09:00N 46°51' W 124°16'3 5.4
2018-Jun-20 08:30N 46°48' W 124°16'3 5.5
2018-Jun-20 08:00N 46°46' W 124°16'3 5.5
2018-Jun-20 07:30N 46°43' W 124°15'3 5.4
2018-Jun-20 06:59N 46°40' W 124°15'7 5.2
2018-Jun-20 05:36N 46°33' W 124°15'0 4.8
2018-Jun-20 05:30N 46°32' W 124°15'2 4.9
2018-Jun-20 05:00N 46°30' W 124°15'2 4.9
2018-Jun-20 04:30N 46°27' W 124°15'3 5.0
2018-Jun-20 04:01N 46°25' W 124°14'3 4.9
2018-Jun-20 03:20N 46°22' W 124°14'2 5.0
2018-Jun-20 03:00N 46°20' W 124°14'2 4.6
2018-Jun-20 02:31N 46°18' W 124°13'3 5.0
2018-Jun-20 02:01N 46°16' W 124°10'2 4.6
2018-Jun-20 01:31N 46°14' W 124°08'3 5.2
2018-Jun-20 01:01N 46°15' W 124°04'2 3.7
2018-Jun-20 00:28N 46°16' W 124°02'2 4.1
2018-Jun-20 00:01N 46°18' W 124°02'0 0.0
2018-Jun-19 00:38N 46°18' W 124°02'0 0.0
2018-Jun-19 00:29N 46°18' W 124°02'0 0.0
2018-Jun-18 23:59N 46°18' W 124°02'0 0.0
2018-Jun-18 23:30N 46°18' W 124°02'2 4.7
2018-Jun-18 23:00N 46°16' W 124°02'2 4.1
2018-Jun-18 22:30N 46°15' W 123°59'2 4.1
2018-Jun-18 22:00N 46°13' W 123°57'2 4.8
2018-Jun-18 21:30N 46°12' W 123°55'2 0.1
2018-Jun-17 22:26N 46°11' W 123°51'0 0.0
2018-Jun-17 21:59N 46°11' W 123°51'2 3.4
2018-Jun-17 21:18N 46°11' W 123°55'1 2.2
2018-Jun-17 20:57N 46°10' W 123°55'0 0.1
2018-Jun-17 20:22N 46°10' W 123°55'0 0.0
2018-Jun-17 18:14N 46°10' W 123°55'0 0.0
2018-Jun-17 00:22N 46°10' W 123°55'0 0.0
2018-Jun-16 23:58N 46°10' W 123°55'0 0.0
2018-Jun-16 23:28N 46°10' W 123°55'0 0.2
2018-Jun-16 23:00N 46°10' W 123°55'2 3.6
2018-Jun-16 22:30N 46°11' W 123°53'2 3.1
2018-Jun-16 21:59N 46°12' W 123°51'2 3.6
2018-Jun-16 21:30N 46°12' W 123°49'2 3.8
2018-Jun-16 21:00N 46°13' W 123°46'2 3.7
2018-Jun-16 20:30N 46°11' W 123°44'0 0.6
2018-Jun-16 19:59N 46°11' W 123°44'0 0.0
2018-Jun-16 19:20N 46°11' W 123°44'0 0.0
2018-Jun-16 18:59N 46°11' W 123°44'0 0.0
2018-Jun-16 18:29N 46°11' W 123°44'0 0.0
2018-Jun-16 17:59N 46°11' W 123°44'0 0.0
2018-Jun-16 00:50N 46°11' W 123°44'0 0.0
2018-Jun-16 00:29N 46°11' W 123°44'1 1.3
2018-Jun-16 00:00N 46°11' W 123°44'2 4.3
2018-Jun-15 23:30N 46°12' W 123°45'2 4.2
2018-Jun-15 23:00N 46°14' W 123°44'2 4.8
2018-Jun-15 22:30N 46°15' W 123°41'2 4.6
2018-Jun-15 22:00N 46°16' W 123°37'2 4.7
2018-Jun-15 21:30N 46°15' W 123°34'3 5.2
2018-Jun-15 21:00N 46°16' W 123°30'3 5.3
2018-Jun-15 20:30N 46°15' W 123°27'2 4.1
2018-Jun-15 20:00N 46°13' W 123°25'0 0.0
2018-Jun-15 01:18N 46°13' W 123°26'0 0.0
2018-Jun-15 01:00N 46°13' W 123°26'2 3.4
2018-Jun-15 00:30N 46°12' W 123°24'0 0.9
2018-Jun-15 00:00N 46°12' W 123°23'0 0.3
2018-Jun-14 23:28N 46°12' W 123°23'0 0.2
2018-Jun-14 23:00N 46°12' W 123°23'2 4.1
2018-Jun-14 22:30N 46°13' W 123°26'  

Dump ship's entire track history